sensor_id;sensor_type;location;lat;lon;timestamp;P1;durP1;ratioP1;P2;durP2;ratioP2
27566;SDS011;15006;48.584;9.186;2023-03-29T00:02:20;5.85;;;2.67;;
27566;SDS011;15006;48.584;9.186;2023-03-29T00:04:57;2.65;;;2.45;;
27566;SDS011;15006;48.584;9.186;2023-03-29T00:07:28;2.28;;;2.08;;
27566;SDS011;15006;48.584;9.186;2023-03-29T00:09:58;2.65;;;2.50;;
27566;SDS011;15006;48.584;9.186;2023-03-29T00:12:25;2.40;;;2.20;;
27566;SDS011;15006;48.584;9.186;2023-03-29T00:14:52;2.42;;;2.22;;
27566;SDS011;15006;48.584;9.186;2023-03-29T00:17:18;2.60;;;2.35;;
27566;SDS011;15006;48.584;9.186;2023-03-29T00:19:44;3.80;;;2.38;;
27566;SDS011;15006;48.584;9.186;2023-03-29T00:22:10;2.78;;;2.58;;
27566;SDS011;15006;48.584;9.186;2023-03-29T00:24:39;2.55;;;2.38;;
27566;SDS011;15006;48.584;9.186;2023-03-29T00:27:05;4.10;;;2.58;;
27566;SDS011;15006;48.584;9.186;2023-03-29T00:29:31;2.88;;;2.67;;
27566;SDS011;15006;48.584;9.186;2023-03-29T00:31:58;2.70;;;2.58;;
27566;SDS011;15006;48.584;9.186;2023-03-29T00:34:25;3.13;;;2.92;;
27566;SDS011;15006;48.584;9.186;2023-03-29T00:36:55;3.03;;;2.80;;
27566;SDS011;15006;48.584;9.186;2023-03-29T00:39:23;2.67;;;2.45;;
27566;SDS011;15006;48.584;9.186;2023-03-29T00:41:50;4.93;;;3.10;;
27566;SDS011;15006;48.584;9.186;2023-03-29T00:47:23;2.40;;;2.30;;
27566;SDS011;15006;48.584;9.186;2023-03-29T00:52:41;3.25;;;2.83;;
27566;SDS011;15006;48.584;9.186;2023-03-29T00:55:14;2.50;;;2.40;;
27566;SDS011;15006;48.584;9.186;2023-03-29T00:57:47;2.60;;;2.50;;
27566;SDS011;15006;48.584;9.186;2023-03-29T01:00:14;3.00;;;2.80;;
27566;SDS011;15006;48.584;9.186;2023-03-29T01:02:45;2.30;;;2.20;;
27566;SDS011;15006;48.584;9.186;2023-03-29T01:05:31;2.90;;;2.70;;
27566;SDS011;15006;48.584;9.186;2023-03-29T01:11:07;2.58;;;2.47;;
27566;SDS011;15006;48.584;9.186;2023-03-29T01:13:47;3.55;;;2.65;;
27566;SDS011;15006;48.584;9.186;2023-03-29T01:16:19;3.13;;;2.77;;
27566;SDS011;15006;48.584;9.186;2023-03-29T01:18:46;2.90;;;2.70;;
27566;SDS011;15006;48.584;9.186;2023-03-29T01:21:18;2.70;;;2.60;;
27566;SDS011;15006;48.584;9.186;2023-03-29T01:27:08;2.13;;;2.03;;
27566;SDS011;15006;48.584;9.186;2023-03-29T01:30:18;3.58;;;2.60;;
27566;SDS011;15006;48.584;9.186;2023-03-29T01:32:53;2.60;;;2.45;;
27566;SDS011;15006;48.584;9.186;2023-03-29T01:35:35;3.92;;;2.72;;
27566;SDS011;15006;48.584;9.186;2023-03-29T01:40:54;2.60;;;2.50;;
27566;SDS011;15006;48.584;9.186;2023-03-29T01:46:03;2.63;;;2.47;;
27566;SDS011;15006;48.584;9.186;2023-03-29T01:48:50;2.92;;;2.55;;
27566;SDS011;15006;48.584;9.186;2023-03-29T01:51:29;2.95;;;2.65;;
27566;SDS011;15006;48.584;9.186;2023-03-29T01:54:03;2.90;;;2.80;;
27566;SDS011;15006;48.584;9.186;2023-03-29T01:56:36;3.05;;;2.85;;
27566;SDS011;15006;48.584;9.186;2023-03-29T01:59:06;2.92;;;2.75;;
27566;SDS011;15006;48.584;9.186;2023-03-29T02:01:41;2.80;;;2.60;;
27566;SDS011;15006;48.584;9.186;2023-03-29T02:04:13;3.08;;;2.97;;
27566;SDS011;15006;48.584;9.186;2023-03-29T02:06:44;3.17;;;2.97;;
27566;SDS011;15006;48.584;9.186;2023-03-29T02:09:11;3.33;;;3.13;;
27566;SDS011;15006;48.584;9.186;2023-03-29T02:11:39;3.05;;;2.85;;
27566;SDS011;15006;48.584;9.186;2023-03-29T02:14:07;3.10;;;2.80;;
27566;SDS011;15006;48.584;9.186;2023-03-29T02:16:37;3.30;;;3.05;;
27566;SDS011;15006;48.584;9.186;2023-03-29T02:19:04;3.90;;;3.60;;
27566;SDS011;15006;48.584;9.186;2023-03-29T02:21:35;3.78;;;3.47;;
27566;SDS011;15006;48.584;9.186;2023-03-29T02:24:16;4.18;;;3.45;;
27566;SDS011;15006;48.584;9.186;2023-03-29T02:26:45;3.03;;;2.92;;
27566;SDS011;15006;48.584;9.186;2023-03-29T02:29:12;3.38;;;3.17;;
27566;SDS011;15006;48.584;9.186;2023-03-29T02:31:48;3.15;;;2.95;;
27566;SDS011;15006;48.584;9.186;2023-03-29T02:34:58;3.30;;;3.10;;
27566;SDS011;15006;48.584;9.186;2023-03-29T02:37:32;3.67;;;2.72;;
27566;SDS011;15006;48.584;9.186;2023-03-29T02:40:01;3.00;;;2.80;;
27566;SDS011;15006;48.584;9.186;2023-03-29T02:42:40;2.88;;;2.60;;
27566;SDS011;15006;48.584;9.186;2023-03-29T02:45:10;2.75;;;2.55;;
27566;SDS011;15006;48.584;9.186;2023-03-29T02:48:00;2.70;;;2.50;;
27566;SDS011;15006;48.584;9.186;2023-03-29T02:50:32;3.28;;;2.97;;
27566;SDS011;15006;48.584;9.186;2023-03-29T02:53:04;3.00;;;2.80;;
27566;SDS011;15006;48.584;9.186;2023-03-29T02:55:37;2.70;;;2.40;;
27566;SDS011;15006;48.584;9.186;2023-03-29T02:58:03;2.70;;;2.50;;
27566;SDS011;15006;48.584;9.186;2023-03-29T03:00:34;1.87;;;1.77;;
27566;SDS011;15006;48.584;9.186;2023-03-29T03:03:09;3.75;;;2.83;;
27566;SDS011;15006;48.584;9.186;2023-03-29T03:05:37;3.03;;;2.55;;
27566;SDS011;15006;48.584;9.186;2023-03-29T03:08:04;3.15;;;2.55;;
27566;SDS011;15006;48.584;9.186;2023-03-29T03:10:32;3.15;;;2.38;;
27566;SDS011;15006;48.584;9.186;2023-03-29T03:12:59;2.08;;;1.98;;
27566;SDS011;15006;48.584;9.186;2023-03-29T03:15:26;2.22;;;2.10;;
27566;SDS011;15006;48.584;9.186;2023-03-29T03:17:52;2.00;;;1.90;;
27566;SDS011;15006;48.584;9.186;2023-03-29T03:20:19;2.30;;;2.20;;
27566;SDS011;15006;48.584;9.186;2023-03-29T03:22:47;2.65;;;2.50;;
27566;SDS011;15006;48.584;9.186;2023-03-29T03:25:14;2.38;;;2.17;;
27566;SDS011;15006;48.584;9.186;2023-03-29T03:27:41;2.25;;;2.10;;
27566;SDS011;15006;48.584;9.186;2023-03-29T03:30:08;3.13;;;1.95;;
27566;SDS011;15006;48.584;9.186;2023-03-29T03:32:35;2.35;;;1.92;;
27566;SDS011;15006;48.584;9.186;2023-03-29T03:35:02;2.15;;;1.77;;
27566;SDS011;15006;48.584;9.186;2023-03-29T03:37:30;2.78;;;2.58;;
27566;SDS011;15006;48.584;9.186;2023-03-29T03:39:56;2.20;;;2.08;;
27566;SDS011;15006;48.584;9.186;2023-03-29T03:42:22;3.25;;;1.80;;
27566;SDS011;15006;48.584;9.186;2023-03-29T03:44:51;1.90;;;1.80;;
27566;SDS011;15006;48.584;9.186;2023-03-29T03:47:18;2.03;;;1.90;;
27566;SDS011;15006;48.584;9.186;2023-03-29T03:49:44;2.70;;;2.50;;
27566;SDS011;15006;48.584;9.186;2023-03-29T03:52:10;5.93;;;3.90;;
27566;SDS011;15006;48.584;9.186;2023-03-29T03:54:36;5.15;;;3.83;;
27566;SDS011;15006;48.584;9.186;2023-03-29T03:57:03;2.83;;;2.63;;
27566;SDS011;15006;48.584;9.186;2023-03-29T03:59:29;3.42;;;2.85;;
27566;SDS011;15006;48.584;9.186;2023-03-29T04:01:55;2.13;;;2.03;;
27566;SDS011;15006;48.584;9.186;2023-03-29T04:04:21;2.40;;;2.30;;
27566;SDS011;15006;48.584;9.186;2023-03-29T04:06:47;2.40;;;2.17;;
27566;SDS011;15006;48.584;9.186;2023-03-29T04:09:14;2.47;;;2.28;;
27566;SDS011;15006;48.584;9.186;2023-03-29T04:11:40;2.55;;;2.40;;
27566;SDS011;15006;48.584;9.186;2023-03-29T04:14:06;3.45;;;2.40;;
27566;SDS011;15006;48.584;9.186;2023-03-29T04:16:33;4.55;;;4.15;;
27566;SDS011;15006;48.584;9.186;2023-03-29T04:18:59;3.67;;;3.47;;
27566;SDS011;15006;48.584;9.186;2023-03-29T04:21:25;3.60;;;3.30;;
27566;SDS011;15006;48.584;9.186;2023-03-29T04:23:51;4.80;;;3.13;;
27566;SDS011;15006;48.584;9.186;2023-03-29T04:26:17;2.80;;;2.60;;
27566;SDS011;15006;48.584;9.186;2023-03-29T04:28:43;3.55;;;3.25;;
27566;SDS011;15006;48.584;9.186;2023-03-29T04:31:10;2.58;;;2.38;;
27566;SDS011;15006;48.584;9.186;2023-03-29T04:33:37;2.28;;;2.08;;
27566;SDS011;15006;48.584;9.186;2023-03-29T04:36:04;2.83;;;1.90;;
27566;SDS011;15006;48.584;9.186;2023-03-29T04:38:31;1.50;;;1.40;;
27566;SDS011;15006;48.584;9.186;2023-03-29T04:41:01;1.25;;;1.20;;
27566;SDS011;15006;48.584;9.186;2023-03-29T04:43:29;2.08;;;1.98;;
27566;SDS011;15006;48.584;9.186;2023-03-29T04:45:55;4.00;;;2.97;;
27566;SDS011;15006;48.584;9.186;2023-03-29T04:48:22;2.22;;;1.95;;
27566;SDS011;15006;48.584;9.186;2023-03-29T04:50:49;2.22;;;1.90;;
27566;SDS011;15006;48.584;9.186;2023-03-29T04:53:15;1.70;;;1.60;;
27566;SDS011;15006;48.584;9.186;2023-03-29T04:55:41;1.52;;;1.42;;
27566;SDS011;15006;48.584;9.186;2023-03-29T04:58:07;1.80;;;1.70;;
27566;SDS011;15006;48.584;9.186;2023-03-29T05:00:34;1.80;;;1.70;;
27566;SDS011;15006;48.584;9.186;2023-03-29T05:03:00;2.00;;;1.80;;
27566;SDS011;15006;48.584;9.186;2023-03-29T05:05:28;1.75;;;1.65;;
27566;SDS011;15006;48.584;9.186;2023-03-29T05:07:55;1.80;;;1.70;;
27566;SDS011;15006;48.584;9.186;2023-03-29T05:10:22;1.70;;;1.50;;
27566;SDS011;15006;48.584;9.186;2023-03-29T05:12:48;1.92;;;1.83;;
27566;SDS011;15006;48.584;9.186;2023-03-29T05:15:18;1.90;;;1.80;;
27566;SDS011;15006;48.584;9.186;2023-03-29T05:17:45;1.70;;;1.60;;
27566;SDS011;15006;48.584;9.186;2023-03-29T05:20:13;2.60;;;2.08;;
27566;SDS011;15006;48.584;9.186;2023-03-29T05:22:40;2.45;;;2.25;;
27566;SDS011;15006;48.584;9.186;2023-03-29T05:25:07;3.10;;;1.83;;
27566;SDS011;15006;48.584;9.186;2023-03-29T05:27:35;3.20;;;2.22;;
27566;SDS011;15006;48.584;9.186;2023-03-29T05:30:01;5.47;;;5.07;;
27566;SDS011;15006;48.584;9.186;2023-03-29T05:32:28;4.13;;;3.83;;
27566;SDS011;15006;48.584;9.186;2023-03-29T05:34:54;5.78;;;3.33;;
27566;SDS011;15006;48.584;9.186;2023-03-29T05:37:21;5.53;;;5.07;;
27566;SDS011;15006;48.584;9.186;2023-03-29T05:39:47;6.97;;;4.93;;
27566;SDS011;15006;48.584;9.186;2023-03-29T05:42:13;6.63;;;3.45;;
27566;SDS011;15006;48.584;9.186;2023-03-29T05:44:40;6.10;;;4.20;;
27566;SDS011;15006;48.584;9.186;2023-03-29T05:47:06;3.70;;;3.40;;
27566;SDS011;15006;48.584;9.186;2023-03-29T05:49:32;7.72;;;3.20;;
27566;SDS011;15006;48.584;9.186;2023-03-29T05:51:58;4.82;;;3.10;;
27566;SDS011;15006;48.584;9.186;2023-03-29T05:54:24;3.28;;;3.08;;
27566;SDS011;15006;48.584;9.186;2023-03-29T05:56:51;4.50;;;2.53;;
27566;SDS011;15006;48.584;9.186;2023-03-29T05:59:17;4.07;;;3.00;;
27566;SDS011;15006;48.584;9.186;2023-03-29T06:01:43;3.10;;;2.17;;
27566;SDS011;15006;48.584;9.186;2023-03-29T06:04:11;3.83;;;2.53;;
27566;SDS011;15006;48.584;9.186;2023-03-29T06:06:38;3.53;;;2.38;;
27566;SDS011;15006;48.584;9.186;2023-03-29T06:09:05;3.78;;;2.08;;
27566;SDS011;15006;48.584;9.186;2023-03-29T06:11:32;3.25;;;1.90;;
27566;SDS011;15006;48.584;9.186;2023-03-29T06:13:59;6.03;;;2.22;;
27566;SDS011;15006;48.584;9.186;2023-03-29T06:16:27;2.40;;;2.20;;
27566;SDS011;15006;48.584;9.186;2023-03-29T06:18:53;3.63;;;2.40;;
27566;SDS011;15006;48.584;9.186;2023-03-29T06:21:19;2.63;;;2.42;;
27566;SDS011;15006;48.584;9.186;2023-03-29T06:23:46;4.07;;;2.10;;
27566;SDS011;15006;48.584;9.186;2023-03-29T06:26:12;3.65;;;2.33;;
27566;SDS011;15006;48.584;9.186;2023-03-29T06:28:38;1.88;;;1.77;;
27566;SDS011;15006;48.584;9.186;2023-03-29T06:31:04;2.17;;;2.00;;
27566;SDS011;15006;48.584;9.186;2023-03-29T06:33:30;2.35;;;1.65;;
27566;SDS011;15006;48.584;9.186;2023-03-29T06:35:58;4.57;;;2.33;;
27566;SDS011;15006;48.584;9.186;2023-03-29T06:38:24;2.67;;;2.00;;
27566;SDS011;15006;48.584;9.186;2023-03-29T06:40:58;1.65;;;1.55;;
27566;SDS011;15006;48.584;9.186;2023-03-29T06:43:27;1.42;;;1.25;;
27566;SDS011;15006;48.584;9.186;2023-03-29T06:45:54;1.83;;;1.27;;
27566;SDS011;15006;48.584;9.186;2023-03-29T06:48:20;3.90;;;1.95;;
27566;SDS011;15006;48.584;9.186;2023-03-29T06:50:48;5.53;;;2.15;;
27566;SDS011;15006;48.584;9.186;2023-03-29T06:53:15;1.80;;;1.70;;
27566;SDS011;15006;48.584;9.186;2023-03-29T06:55:41;3.50;;;1.80;;
27566;SDS011;15006;48.584;9.186;2023-03-29T06:58:07;1.55;;;1.35;;
27566;SDS011;15006;48.584;9.186;2023-03-29T07:00:33;3.28;;;1.52;;
27566;SDS011;15006;48.584;9.186;2023-03-29T07:03:04;1.63;;;1.52;;
27566;SDS011;15006;48.584;9.186;2023-03-29T07:05:37;2.20;;;1.23;;
27566;SDS011;15006;48.584;9.186;2023-03-29T07:08:06;2.45;;;1.17;;
27566;SDS011;15006;48.584;9.186;2023-03-29T07:10:40;3.58;;;1.83;;
27566;SDS011;15006;48.584;9.186;2023-03-29T07:13:10;1.90;;;1.65;;
27566;SDS011;15006;48.584;9.186;2023-03-29T07:15:38;1.45;;;1.30;;
27566;SDS011;15006;48.584;9.186;2023-03-29T07:18:06;2.40;;;1.58;;
27566;SDS011;15006;48.584;9.186;2023-03-29T07:20:33;1.80;;;1.35;;
27566;SDS011;15006;48.584;9.186;2023-03-29T07:22:59;3.17;;;1.50;;
27566;SDS011;15006;48.584;9.186;2023-03-29T07:25:26;3.28;;;1.30;;
27566;SDS011;15006;48.584;9.186;2023-03-29T07:27:54;2.45;;;1.88;;
27566;SDS011;15006;48.584;9.186;2023-03-29T07:30:20;5.35;;;1.25;;
27566;SDS011;15006;48.584;9.186;2023-03-29T07:32:50;5.03;;;1.65;;
27566;SDS011;15006;48.584;9.186;2023-03-29T07:35:17;2.45;;;1.20;;
27566;SDS011;15006;48.584;9.186;2023-03-29T07:37:44;1.58;;;1.20;;
27566;SDS011;15006;48.584;9.186;2023-03-29T07:40:11;1.42;;;1.33;;
27566;SDS011;15006;48.584;9.186;2023-03-29T07:42:49;2.97;;;1.48;;
27566;SDS011;15006;48.584;9.186;2023-03-29T07:45:18;1.50;;;1.33;;
27566;SDS011;15006;48.584;9.186;2023-03-29T07:47:48;2.17;;;1.20;;
27566;SDS011;15006;48.584;9.186;2023-03-29T07:50:17;1.80;;;1.33;;
27566;SDS011;15006;48.584;9.186;2023-03-29T07:52:43;1.40;;;1.23;;
27566;SDS011;15006;48.584;9.186;2023-03-29T07:55:11;1.00;;;1.00;;
27566;SDS011;15006;48.584;9.186;2023-03-29T07:57:38;1.67;;;1.23;;
27566;SDS011;15006;48.584;9.186;2023-03-29T08:00:05;1.00;;;1.00;;
27566;SDS011;15006;48.584;9.186;2023-03-29T08:02:37;2.17;;;1.35;;
27566;SDS011;15006;48.584;9.186;2023-03-29T08:05:04;1.05;;;0.77;;
27566;SDS011;15006;48.584;9.186;2023-03-29T08:07:31;3.38;;;1.17;;
27566;SDS011;15006;48.584;9.186;2023-03-29T08:09:57;1.27;;;0.90;;
27566;SDS011;15006;48.584;9.186;2023-03-29T08:12:23;3.20;;;1.30;;
27566;SDS011;15006;48.584;9.186;2023-03-29T08:14:49;1.20;;;1.10;;
27566;SDS011;15006;48.584;9.186;2023-03-29T08:17:15;1.17;;;1.08;;
27566;SDS011;15006;48.584;9.186;2023-03-29T08:19:41;1.20;;;1.10;;
27566;SDS011;15006;48.584;9.186;2023-03-29T08:22:07;1.83;;;1.25;;
27566;SDS011;15006;48.584;9.186;2023-03-29T08:24:33;7.72;;;1.02;;
27566;SDS011;15006;48.584;9.186;2023-03-29T08:26:59;1.65;;;1.10;;
27566;SDS011;15006;48.584;9.186;2023-03-29T08:29:25;1.50;;;1.33;;
27566;SDS011;15006;48.584;9.186;2023-03-29T08:31:51;1.60;;;1.10;;
27566;SDS011;15006;48.584;9.186;2023-03-29T08:34:18;1.67;;;1.20;;
27566;SDS011;15006;48.584;9.186;2023-03-29T08:36:44;5.90;;;1.20;;
27566;SDS011;15006;48.584;9.186;2023-03-29T08:39:11;1.98;;;1.00;;
27566;SDS011;15006;48.584;9.186;2023-03-29T08:41:42;6.97;;;1.25;;
27566;SDS011;15006;48.584;9.186;2023-03-29T08:49:44;4.18;;;1.40;;
27566;SDS011;15006;48.584;9.186;2023-03-29T08:52:21;2.70;;;1.20;;
27566;SDS011;15006;48.584;9.186;2023-03-29T08:55:30;1.38;;;1.27;;
27566;SDS011;15006;48.584;9.186;2023-03-29T08:58:04;2.15;;;1.40;;
27566;SDS011;15006;48.584;9.186;2023-03-29T09:05:54;1.38;;;1.27;;
27566;SDS011;15006;48.584;9.186;2023-03-29T09:08:45;1.75;;;1.20;;
27566;SDS011;15006;48.584;9.186;2023-03-29T09:11:24;1.40;;;1.25;;
27566;SDS011;15006;48.584;9.186;2023-03-29T09:20:43;3.78;;;2.22;;
27566;SDS011;15006;48.584;9.186;2023-03-29T09:23:27;4.28;;;2.13;;
27566;SDS011;15006;48.584;9.186;2023-03-29T09:31:57;3.53;;;2.00;;
27566;SDS011;15006;48.584;9.186;2023-03-29T09:34:31;3.65;;;1.98;;
27566;SDS011;15006;48.584;9.186;2023-03-29T09:37:14;1.80;;;1.70;;
27566;SDS011;15006;48.584;9.186;2023-03-29T09:39:47;5.35;;;1.75;;
27566;SDS011;15006;48.584;9.186;2023-03-29T09:42:13;2.50;;;1.50;;
27566;SDS011;15006;48.584;9.186;2023-03-29T09:44:42;3.10;;;1.55;;
27566;SDS011;15006;48.584;9.186;2023-03-29T09:49:39;3.33;;;1.38;;
27566;SDS011;15006;48.584;9.186;2023-03-29T09:52:13;1.77;;;1.65;;
27566;SDS011;15006;48.584;9.186;2023-03-29T09:54:41;4.97;;;1.50;;
27566;SDS011;15006;48.584;9.186;2023-03-29T09:57:10;1.75;;;1.65;;
27566;SDS011;15006;48.584;9.186;2023-03-29T09:59:39;6.45;;;1.75;;
27566;SDS011;15006;48.584;9.186;2023-03-29T10:02:10;2.80;;;1.77;;
27566;SDS011;15006;48.584;9.186;2023-03-29T10:04:38;2.70;;;1.27;;
27566;SDS011;15006;48.584;9.186;2023-03-29T10:07:15;1.40;;;1.20;;
27566;SDS011;15006;48.584;9.186;2023-03-29T10:09:44;2.67;;;1.50;;
27566;SDS011;15006;48.584;9.186;2023-03-29T10:12:14;1.30;;;1.20;;
27566;SDS011;15006;48.584;9.186;2023-03-29T10:14:42;3.55;;;1.17;;
27566;SDS011;15006;48.584;9.186;2023-03-29T10:19:46;1.33;;;1.10;;
27566;SDS011;15006;48.584;9.186;2023-03-29T10:22:16;1.48;;;1.17;;
27566;SDS011;15006;48.584;9.186;2023-03-29T10:24:50;1.15;;;1.05;;
27566;SDS011;15006;48.584;9.186;2023-03-29T10:27:19;2.38;;;1.27;;
27566;SDS011;15006;48.584;9.186;2023-03-29T10:29:49;1.02;;;1.00;;
27566;SDS011;15006;48.584;9.186;2023-03-29T10:32:22;3.45;;;1.30;;
27566;SDS011;15006;48.584;9.186;2023-03-29T10:35:07;3.65;;;1.35;;
27566;SDS011;15006;48.584;9.186;2023-03-29T10:37:50;2.13;;;1.10;;
27566;SDS011;15006;48.584;9.186;2023-03-29T10:40:24;2.65;;;0.90;;
27566;SDS011;15006;48.584;9.186;2023-03-29T10:43:11;3.90;;;1.40;;
27566;SDS011;15006;48.584;9.186;2023-03-29T10:45:55;3.40;;;1.13;;
27566;SDS011;15006;48.584;9.186;2023-03-29T10:48:33;3.90;;;1.30;;
27566;SDS011;15006;48.584;9.186;2023-03-29T10:51:01;2.35;;;1.10;;
27566;SDS011;15006;48.584;9.186;2023-03-29T10:53:30;3.87;;;1.20;;
27566;SDS011;15006;48.584;9.186;2023-03-29T10:56:09;3.08;;;1.10;;
27566;SDS011;15006;48.584;9.186;2023-03-29T11:01:31;4.90;;;1.00;;
27566;SDS011;15006;48.584;9.186;2023-03-29T11:04:56;1.45;;;1.10;;
27566;SDS011;15006;48.584;9.186;2023-03-29T11:08:41;1.67;;;1.00;;
27566;SDS011;15006;48.584;9.186;2023-03-29T11:13:37;0.93;;;0.80;;
27566;SDS011;15006;48.584;9.186;2023-03-29T11:21:40;0.93;;;0.93;;
27566;SDS011;15006;48.584;9.186;2023-03-29T11:24:36;0.90;;;0.80;;
27566;SDS011;15006;48.584;9.186;2023-03-29T11:30:29;2.75;;;0.60;;
27566;SDS011;15006;48.584;9.186;2023-03-29T11:33:17;6.63;;;0.98;;
27566;SDS011;15006;48.584;9.186;2023-03-29T11:39:14;4.20;;;0.80;;
27566;SDS011;15006;48.584;9.186;2023-03-29T11:41:55;0.98;;;0.88;;
27566;SDS011;15006;48.584;9.186;2023-03-29T11:44:32;0.82;;;0.80;;
27566;SDS011;15006;48.584;9.186;2023-03-29T11:47:33;1.50;;;0.75;;
27566;SDS011;15006;48.584;9.186;2023-03-29T11:49:58;0.60;;;0.60;;
27566;SDS011;15006;48.584;9.186;2023-03-29T11:52:48;0.73;;;0.70;;
27566;SDS011;15006;48.584;9.186;2023-03-29T11:55:23;1.02;;;0.73;;
27566;SDS011;15006;48.584;9.186;2023-03-29T11:58:15;0.70;;;0.70;;
27566;SDS011;15006;48.584;9.186;2023-03-29T12:01:00;2.25;;;0.63;;
27566;SDS011;15006;48.584;9.186;2023-03-29T12:03:57;1.20;;;0.90;;
27566;SDS011;15006;48.584;9.186;2023-03-29T12:06:31;1.17;;;0.80;;
27566;SDS011;15006;48.584;9.186;2023-03-29T12:12:07;1.50;;;0.80;;
27566;SDS011;15006;48.584;9.186;2023-03-29T12:17:52;1.13;;;1.00;;
27566;SDS011;15006;48.584;9.186;2023-03-29T12:20:48;4.00;;;1.20;;
27566;SDS011;15006;48.584;9.186;2023-03-29T12:23:21;2.60;;;0.68;;
27566;SDS011;15006;48.584;9.186;2023-03-29T12:34:10;2.40;;;0.98;;
27566;SDS011;15006;48.584;9.186;2023-03-29T12:37:25;1.48;;;0.85;;
27566;SDS011;15006;48.584;9.186;2023-03-29T12:40:15;0.77;;;0.70;;
27566;SDS011;15006;48.584;9.186;2023-03-29T12:43:00;1.60;;;0.80;;
27566;SDS011;15006;48.584;9.186;2023-03-29T12:45:35;1.58;;;1.00;;
27566;SDS011;15006;48.584;9.186;2023-03-29T12:48:05;1.02;;;0.90;;
27566;SDS011;15006;48.584;9.186;2023-03-29T12:50:33;2.35;;;1.20;;
27566;SDS011;15006;48.584;9.186;2023-03-29T12:53:00;1.75;;;0.88;;
27566;SDS011;15006;48.584;9.186;2023-03-29T13:09:22;1.52;;;0.52;;
27566;SDS011;15006;48.584;9.186;2023-03-29T13:14:40;2.10;;;0.77;;
27566;SDS011;15006;48.584;9.186;2023-03-29T13:17:32;1.15;;;0.70;;
27566;SDS011;15006;48.584;9.186;2023-03-29T13:23:15;1.55;;;0.77;;
27566;SDS011;15006;48.584;9.186;2023-03-29T13:26:11;1.10;;;0.70;;
27566;SDS011;15006;48.584;9.186;2023-03-29T13:31:40;0.60;;;0.60;;
27566;SDS011;15006;48.584;9.186;2023-03-29T13:40:55;0.73;;;0.73;;
27566;SDS011;15006;48.584;9.186;2023-03-29T13:46:19;1.23;;;1.08;;
27566;SDS011;15006;48.584;9.186;2023-03-29T13:48:51;2.03;;;0.80;;
27566;SDS011;15006;48.584;9.186;2023-03-29T13:51:33;5.75;;;0.93;;
27566;SDS011;15006;48.584;9.186;2023-03-29T13:54:08;2.00;;;1.23;;
27566;SDS011;15006;48.584;9.186;2023-03-29T14:05:11;4.10;;;1.17;;
27566;SDS011;15006;48.584;9.186;2023-03-29T14:07:43;2.20;;;1.13;;
27566;SDS011;15006;48.584;9.186;2023-03-29T14:10:25;2.20;;;1.00;;
27566;SDS011;15006;48.584;9.186;2023-03-29T14:12:58;1.98;;;0.68;;
27566;SDS011;15006;48.584;9.186;2023-03-29T14:15:27;1.05;;;0.75;;
27566;SDS011;15006;48.584;9.186;2023-03-29T14:18:22;4.35;;;1.00;;
27566;SDS011;15006;48.584;9.186;2023-03-29T14:20:51;2.10;;;0.90;;
27566;SDS011;15006;48.584;9.186;2023-03-29T14:23:20;1.10;;;0.60;;
27566;SDS011;15006;48.584;9.186;2023-03-29T14:25:49;0.75;;;0.70;;
27566;SDS011;15006;48.584;9.186;2023-03-29T14:28:20;1.17;;;0.90;;
27566;SDS011;15006;48.584;9.186;2023-03-29T14:30:48;2.25;;;1.20;;
27566;SDS011;15006;48.584;9.186;2023-03-29T14:33:26;1.08;;;0.80;;
27566;SDS011;15006;48.584;9.186;2023-03-29T14:35:57;0.95;;;0.90;;
27566;SDS011;15006;48.584;9.186;2023-03-29T14:40:57;2.38;;;1.30;;
27566;SDS011;15006;48.584;9.186;2023-03-29T14:43:24;1.10;;;1.00;;
27566;SDS011;15006;48.584;9.186;2023-03-29T14:45:54;1.20;;;0.82;;
27566;SDS011;15006;48.584;9.186;2023-03-29T14:48:21;1.98;;;0.90;;
27566;SDS011;15006;48.584;9.186;2023-03-29T14:50:48;1.88;;;0.82;;
27566;SDS011;15006;48.584;9.186;2023-03-29T14:53:19;3.38;;;0.82;;
27566;SDS011;15006;48.584;9.186;2023-03-29T14:55:48;0.80;;;0.70;;
27566;SDS011;15006;48.584;9.186;2023-03-29T15:00:51;1.52;;;0.90;;
27566;SDS011;15006;48.584;9.186;2023-03-29T15:03:18;1.67;;;0.95;;
27566;SDS011;15006;48.584;9.186;2023-03-29T15:05:54;3.97;;;0.95;;
27566;SDS011;15006;48.584;9.186;2023-03-29T15:08:29;1.83;;;0.80;;
27566;SDS011;15006;48.584;9.186;2023-03-29T15:10:59;3.15;;;0.70;;
27566;SDS011;15006;48.584;9.186;2023-03-29T15:13:26;1.67;;;0.90;;
27566;SDS011;15006;48.584;9.186;2023-03-29T15:15:55;3.05;;;1.10;;
27566;SDS011;15006;48.584;9.186;2023-03-29T15:18:26;5.43;;;1.08;;
27566;SDS011;15006;48.584;9.186;2023-03-29T15:20:59;1.63;;;1.15;;
27566;SDS011;15006;48.584;9.186;2023-03-29T15:23:33;2.95;;;2.10;;
27566;SDS011;15006;48.584;9.186;2023-03-29T15:26:11;3.80;;;2.25;;
27566;SDS011;15006;48.584;9.186;2023-03-29T15:28:51;1.63;;;1.50;;
27566;SDS011;15006;48.584;9.186;2023-03-29T15:31:23;1.98;;;1.80;;
27566;SDS011;15006;48.584;9.186;2023-03-29T15:34:01;1.90;;;1.20;;
27566;SDS011;15006;48.584;9.186;2023-03-29T15:36:30;3.10;;;1.60;;
27566;SDS011;15006;48.584;9.186;2023-03-29T15:38:57;7.00;;;1.25;;
27566;SDS011;15006;48.584;9.186;2023-03-29T15:41:23;3.47;;;1.08;;
27566;SDS011;15006;48.584;9.186;2023-03-29T15:43:51;1.45;;;0.90;;
27566;SDS011;15006;48.584;9.186;2023-03-29T15:46:19;3.33;;;1.00;;
27566;SDS011;15006;48.584;9.186;2023-03-29T15:48:45;3.17;;;0.98;;
27566;SDS011;15006;48.584;9.186;2023-03-29T15:51:11;0.85;;;0.82;;
27566;SDS011;15006;48.584;9.186;2023-03-29T15:53:38;0.93;;;0.82;;
27566;SDS011;15006;48.584;9.186;2023-03-29T15:56:05;1.00;;;0.90;;
27566;SDS011;15006;48.584;9.186;2023-03-29T15:58:35;1.92;;;0.82;;
27566;SDS011;15006;48.584;9.186;2023-03-29T16:04:18;2.80;;;0.82;;
27566;SDS011;15006;48.584;9.186;2023-03-29T16:06:50;2.45;;;1.00;;
27566;SDS011;15006;48.584;9.186;2023-03-29T16:09:18;2.53;;;0.88;;
27566;SDS011;15006;48.584;9.186;2023-03-29T16:11:46;1.13;;;1.00;;
27566;SDS011;15006;48.584;9.186;2023-03-29T16:14:18;1.50;;;1.40;;
27566;SDS011;15006;48.584;9.186;2023-03-29T16:16:52;1.25;;;1.15;;
27566;SDS011;15006;48.584;9.186;2023-03-29T16:19:22;1.40;;;1.30;;
27566;SDS011;15006;48.584;9.186;2023-03-29T16:21:49;1.30;;;1.20;;
27566;SDS011;15006;48.584;9.186;2023-03-29T16:24:18;1.45;;;1.35;;
27566;SDS011;15006;48.584;9.186;2023-03-29T16:26:48;1.42;;;1.33;;
27566;SDS011;15006;48.584;9.186;2023-03-29T16:29:16;3.45;;;1.88;;
27566;SDS011;15006;48.584;9.186;2023-03-29T16:31:43;1.88;;;1.77;;
27566;SDS011;15006;48.584;9.186;2023-03-29T16:34:11;4.70;;;1.77;;
27566;SDS011;15006;48.584;9.186;2023-03-29T16:36:38;2.30;;;2.10;;
27566;SDS011;15006;48.584;9.186;2023-03-29T16:39:05;3.08;;;2.25;;
27566;SDS011;15006;48.584;9.186;2023-03-29T16:41:32;4.40;;;2.67;;
27566;SDS011;15006;48.584;9.186;2023-03-29T16:43:58;4.38;;;2.08;;
27566;SDS011;15006;48.584;9.186;2023-03-29T16:46:24;3.15;;;2.42;;
27566;SDS011;15006;48.584;9.186;2023-03-29T16:48:50;2.88;;;1.88;;
27566;SDS011;15006;48.584;9.186;2023-03-29T16:51:18;3.35;;;2.30;;
27566;SDS011;15006;48.584;9.186;2023-03-29T16:53:45;3.72;;;1.83;;
27566;SDS011;15006;48.584;9.186;2023-03-29T16:56:12;4.78;;;2.20;;
27566;SDS011;15006;48.584;9.186;2023-03-29T16:58:40;2.20;;;2.00;;
27566;SDS011;15006;48.584;9.186;2023-03-29T17:01:07;2.13;;;1.92;;
27566;SDS011;15006;48.584;9.186;2023-03-29T17:03:42;3.70;;;2.17;;
27566;SDS011;15006;48.584;9.186;2023-03-29T17:06:09;4.47;;;2.10;;
27566;SDS011;15006;48.584;9.186;2023-03-29T17:08:36;4.80;;;2.10;;
27566;SDS011;15006;48.584;9.186;2023-03-29T17:11:03;1.98;;;1.85;;
27566;SDS011;15006;48.584;9.186;2023-03-29T17:13:31;2.78;;;2.00;;
27566;SDS011;15006;48.584;9.186;2023-03-29T17:15:57;5.25;;;2.22;;
27566;SDS011;15006;48.584;9.186;2023-03-29T17:18:24;4.40;;;2.15;;
27566;SDS011;15006;48.584;9.186;2023-03-29T17:20:51;6.15;;;2.83;;